Погода Эрмонесна неделю

Ионические острова, Греция

31 августа-06 сентября
  • 31августа
    Сегодня
    +24°
    +35°
    Ясно и безоблачно
    ВремяПогодаТемператураВлажностьДавлениеВетер, м/сВероятность осадков
    00:00Ясно и безоблачно+28°C88 %755 мм4.6 м/с2 %
    03:00Ясно и безоблачно+27°C89 %754 мм5.8 м/с2 %
    06:00Ясно и безоблачно+27°C83 %754 мм5.3 м/с2 %
    09:00Ясно и безоблачно+28°C78 %754 мм5.2 м/с2 %
    12:00Ясно и безоблачно+32°C73 %755 мм5.3 м/с1 %
    15:00Ясно и безоблачно+34°C72 %754 мм4.2 м/с13 %
    18:00Практически безоблачно+33°C76 %754 мм2.9 м/с14 %
    21:00Ясно и безоблачно+29°C88 %754 мм2.5 м/с3 %
  • 01сентября
    Вторник
    +24°
    +36°
    Ясно и безоблачно
    ВремяПогодаТемператураВлажностьДавлениеВетер, м/сВероятность осадков
    00:00Практически безоблачно+27°C92 %755 мм2.1 м/с2 %
    03:00Ясно и безоблачно+26°C93 %755 мм1.6 м/с2 %
    06:00Ясно и безоблачно+25°C94 %754 мм1.3 м/с2 %
    09:00Ясно и безоблачно+28°C75 %755 мм0.8 м/с2 %
    12:00Ясно и безоблачно+33°C74 %756 мм3.1 м/с2 %
    15:00Ясно и безоблачно+35°C71 %755 мм4.8 м/с8 %
    18:00Ясно и безоблачно+34°C72 %755 мм3.6 м/с10 %
    21:00Ясно и безоблачно+30°C87 %755 мм2.6 м/с2 %
  • 02сентября
    Среда
    +23°
    +37°
    Ясно и безоблачно
    ВремяПогодаТемператураВлажностьДавлениеВетер, м/сВероятность осадков
    00:00Практически безоблачно+28°C90 %755 мм2.6 м/с2 %
    03:00Ясно и безоблачно+26°C94 %755 мм1.4 м/с2 %
    06:00Ясно и безоблачно+25°C93 %755 мм1.1 м/с2 %
    09:00Ясно и безоблачно+28°C77 %755 мм0.6 м/с2 %
    12:00Ясно и безоблачно+33°C74 %756 мм2.1 м/с2 %
    15:00Ясно и безоблачно+37°C64 %755 мм3.4 м/с2 %
    18:00Ясно и безоблачно+35°C67 %755 мм3.7 м/с2 %
    21:00Ясно и безоблачно+29°C77 %754 мм3.1 м/с2 %
  • 03сентября
    Четверг
    +23°
    +35°
    Ясно и безоблачно
    ВремяПогодаТемператураВлажностьДавлениеВетер, м/сВероятность осадков
    00:00Ясно и безоблачно+27°C85 %754 мм1.4 м/с2 %
    03:00Ясно и безоблачно+26°C85 %754 мм1.8 м/с2 %
    06:00Ясно и безоблачно+24°C89 %754 мм3.0 м/с2 %
    09:00Ясно и безоблачно+27°C77 %754 мм3.4 м/с2 %
    12:00Ясно и безоблачно+33°C52 %754 мм4.7 м/с2 %
    15:00Ясно и безоблачно+35°C63 %754 мм7.5 м/с2 %
    18:00Ясно и безоблачно+32°C72 %753 мм8.0 м/с2 %
    21:00Ясно и безоблачно+29°C79 %753 мм3.9 м/с4 %
  • 04сентября
    Пятница
    +22°
    +35°
    Ясно и безоблачно
    ВремяПогодаТемператураВлажностьДавлениеВетер, м/сВероятность осадков
    00:00Ясно и безоблачно+28°C73 %754 мм1.6 м/с2 %
    03:00Ясно и безоблачно+25°C77 %754 мм0.8 м/с2 %
    06:00Ясно и безоблачно+24°C75 %754 мм0.6 м/с2 %
    09:00Ясно и безоблачно+27°C56 %755 мм1.8 м/с2 %
    12:00Ясно и безоблачно+32°C63 %756 мм1.9 м/с2 %
    15:00Ясно и безоблачно+35°C44 %756 мм4.6 м/с2 %
    18:00Ясно и безоблачно+33°C55 %755 мм6.5 м/с2 %
    21:00Ясно и безоблачно+29°C66 %756 мм5.7 м/с2 %
  • 05сентября
    Суббота
    +24°
    +34°
    Ясно и безоблачно
    ВремяПогодаТемператураВлажностьДавлениеВетер, м/сВероятность осадков
    03:00Ясно и безоблачно+24°C64 %757 мм2.0 м/с2 %
    09:00Ясно и безоблачно+27°C43 %758 мм0.5 м/с2 %
    15:00Ясно и безоблачно+30°C50 %759 мм3.7 м/с2 %
    21:00Ясно и безоблачно+28°C60 %757 мм4.6 м/с2 %
  • 06сентября
    Воскресенье
    +24°
    +32°
    Ясно и безоблачно
    ВремяПогодаТемператураВлажностьДавлениеВетер, м/сВероятность осадков
    03:00Ясно и безоблачно+26°C70 %757 мм2.6 м/с2 %
    09:00Ясно и безоблачно+27°C69 %758 мм2.3 м/с2 %
    15:00Ясно и безоблачно+31°C66 %758 мм4.0 м/с2 %
    21:00Ясно и безоблачно+27°C74 %757 мм4.1 м/с2 %
Мы используем cookies
Соглашаюсь